Carroll, Iowa
Current Conditions -  °F | °C
As of 2:55 PM on Tuesday 21 Oct 2014 (Local Time) from KCIN Reporting Station
Clear Clear  
Wind Chill: 21°   Ceiling: Unl
Heat Index: 21°   Visibility: 10mi
Dew Point:   Wind: 5mph
Humidity: 35%   Direction: 140°SE
Pressure: 30.08"   Gusts: 13mph
Location:  42.07°N, 94.87°W
Report Text: KCIN 211955Z AUTO 14004G11KT 10SM CLR 21/05 A3008 RMK AO2
Loading
Personal Weather Stations






























Interactive Weather Map
Tropical Storm Tracking
New forecast layout! Learn more

10-Day Weather Forecast

Advertisements
Track Severe Weather on mobile